createdAt,value
2022-10-23T00:01:35.121Z,89.51
2022-10-23T00:04:12.149Z,89.41
2022-10-23T00:06:39.260Z,89.40
2022-10-23T00:09:07.805Z,89.44
2022-10-23T00:11:35.087Z,89.22
2022-10-23T00:14:04.501Z,89.28
2022-10-23T00:16:31.099Z,89.13
2022-10-23T00:18:58.958Z,89.13
2022-10-23T00:21:25.579Z,89.23
2022-10-23T00:23:52.016Z,89.33
2022-10-23T00:26:19.035Z,89.33
2022-10-23T00:28:48.867Z,89.25
2022-10-23T00:31:16.152Z,89.27
2022-10-23T00:33:43.089Z,89.21
2022-10-23T00:36:12.457Z,89.20
2022-10-23T00:38:39.799Z,89.26
2022-10-23T00:41:08.548Z,89.37
2022-10-23T00:43:54.246Z,89.42
2022-10-23T00:46:20.700Z,89.26
2022-10-23T00:48:47.158Z,89.27
2022-10-23T00:51:13.610Z,89.39
2022-10-23T00:53:40.021Z,89.43
2022-10-23T00:56:06.802Z,89.43
2022-10-23T00:58:33.395Z,89.34
2022-10-23T01:00:59.899Z,89.38
2022-10-23T01:03:28.337Z,89.39
2022-10-23T01:06:07.735Z,89.46
2022-10-23T01:08:52.799Z,89.44
2022-10-23T01:11:32.647Z,89.58
2022-10-23T01:14:44.352Z,89.40
2022-10-23T01:17:26.362Z,89.37
2022-10-23T01:20:01.274Z,89.52
2022-10-23T01:22:58.854Z,89.53
2022-10-23T01:25:43.732Z,89.60
2022-10-23T01:28:16.108Z,89.79
2022-10-23T01:30:44.747Z,90.01
2022-10-23T01:33:19.893Z,89.91
2022-10-23T01:35:52.022Z,89.86
2022-10-23T01:38:38.855Z,89.83
2022-10-23T01:41:12.491Z,89.67
2022-10-23T01:43:49.380Z,89.77
2022-10-23T01:46:17.463Z,89.81
2022-10-23T01:48:51.863Z,89.61
2022-10-23T01:51:20.750Z,89.60
2022-10-23T01:53:49.780Z,89.56
2022-10-23T01:56:20.532Z,89.57
2022-10-23T01:58:50.203Z,89.64
2022-10-23T02:01:20.187Z,89.83
2022-10-23T02:03:48.005Z,89.81
2022-10-23T02:06:14.872Z,90.20
2022-10-23T02:08:41.939Z,89.74
2022-10-23T02:11:11.361Z,89.87
2022-10-23T02:13:46.477Z,89.63
2022-10-23T02:16:30.163Z,90.12
2022-10-23T02:19:05.739Z,90.45
2022-10-23T02:21:41.654Z,89.58
2022-10-23T02:24:23.411Z,89.51
2022-10-23T02:26:55.295Z,89.66
2022-10-23T02:29:33.572Z,89.49
2022-10-23T02:32:00.810Z,89.64
2022-10-23T02:34:27.565Z,89.74
2022-10-23T02:36:54.035Z,89.80
2022-10-23T02:39:22.540Z,89.92
2022-10-23T02:41:56.088Z,89.89
2022-10-23T02:44:53.525Z,89.93
2022-10-23T02:47:26.981Z,89.94
2022-10-23T02:50:07.177Z,90.10
2022-10-23T02:52:44.942Z,89.92
2022-10-23T02:55:40.062Z,89.94
2022-10-23T02:58:16.372Z,90.17
2022-10-23T03:00:49.198Z,89.96
2022-10-23T03:03:21.947Z,89.98
2022-10-23T03:05:48.651Z,90.17
2022-10-23T03:08:15.439Z,90.20
2022-10-23T03:10:42.504Z,90.21
2022-10-23T03:13:10.582Z,90.45
2022-10-23T03:15:37.387Z,90.17
2022-10-23T03:18:03.947Z,90.27
2022-10-23T03:20:30.611Z,90.11
2022-10-23T03:22:57.052Z,90.10
2022-10-23T03:25:23.461Z,90.37
2022-10-23T03:27:49.863Z,90.41
2022-10-23T03:30:19.905Z,90.50
2022-10-23T03:32:46.379Z,90.72
2022-10-23T03:35:12.867Z,90.54
2022-10-23T03:37:39.326Z,90.44
2022-10-23T03:40:06.376Z,90.37
2022-10-23T03:42:32.793Z,90.44
2022-10-23T03:44:59.205Z,90.36
2022-10-23T03:47:25.664Z,90.01
2022-10-23T03:49:52.122Z,90.14
2022-10-23T03:52:18.652Z,90.21
2022-10-23T03:54:45.077Z,90.35
2022-10-23T03:57:11.698Z,90.23
2022-10-23T03:59:38.124Z,90.22
2022-10-23T04:02:04.614Z,90.45
2022-10-23T04:04:31.111Z,90.47
2022-10-23T04:06:57.522Z,90.50
2022-10-23T04:09:24.079Z,90.67
2022-10-23T04:11:50.458Z,90.58
2022-10-23T04:14:17.143Z,90.57
2022-10-23T04:16:43.560Z,90.61
2022-10-23T04:19:10.157Z,90.90
2022-10-23T04:21:36.728Z,90.95
2022-10-23T04:24:03.615Z,90.82
2022-10-23T04:26:30.163Z,90.80
2022-10-23T04:28:56.611Z,90.85
2022-10-23T04:31:23.022Z,90.87
2022-10-23T04:33:49.504Z,90.83
2022-10-23T04:36:15.968Z,90.83
2022-10-23T04:38:42.397Z,90.97
2022-10-23T04:41:08.841Z,91.08
2022-10-23T04:43:35.521Z,90.69
2022-10-23T04:46:01.954Z,90.80
2022-10-23T04:48:29.243Z,93.38
2022-10-23T04:51:01.811Z,89.23
2022-10-23T04:53:28.982Z,89.39
2022-10-23T04:55:57.532Z,88.92
2022-10-23T04:58:25.318Z,89.46
2022-10-23T05:00:52.154Z,89.89
2022-10-23T05:03:19.235Z,90.38
2022-10-23T05:05:46.359Z,90.45
2022-10-23T05:08:15.600Z,90.62
2022-10-23T05:10:44.751Z,90.74
2022-10-23T05:13:11.213Z,90.98
2022-10-23T05:15:37.755Z,91.03
2022-10-23T05:18:12.052Z,91.10
2022-10-23T05:20:40.335Z,91.61
2022-10-23T05:23:10.187Z,91.82
2022-10-23T05:25:36.893Z,92.99
2022-10-23T05:28:03.883Z,92.78
2022-10-23T05:30:32.959Z,91.29
2022-10-23T05:33:01.399Z,91.20
2022-10-23T05:35:29.688Z,91.23
2022-10-23T05:37:57.534Z,91.74
2022-10-23T05:40:24.591Z,91.26
2022-10-23T05:42:51.129Z,91.43
2022-10-23T05:45:17.539Z,91.55
2022-10-23T05:47:45.163Z,91.85
2022-10-23T05:50:11.729Z,91.85
2022-10-23T05:52:38.150Z,91.71
2022-10-23T05:55:04.854Z,92.00
2022-10-23T05:57:34.480Z,88.96
2022-10-23T06:00:00.906Z,89.81
2022-10-23T06:02:27.638Z,90.40
2022-10-23T06:04:54.085Z,90.81
2022-10-23T06:07:31.315Z,91.01
2022-10-23T06:10:00.343Z,91.35
2022-10-23T06:12:26.813Z,91.99
2022-10-23T06:14:53.291Z,91.80
2022-10-23T06:17:19.744Z,91.49
2022-10-23T06:19:46.403Z,91.75
2022-10-23T06:22:13.118Z,91.80
2022-10-23T06:24:39.767Z,91.97
2022-10-23T06:27:06.279Z,92.34
2022-10-23T06:29:32.792Z,92.23
2022-10-23T06:31:59.241Z,92.24
2022-10-23T06:34:25.671Z,92.58
2022-10-23T06:36:52.170Z,92.26
2022-10-23T06:39:18.655Z,92.51
2022-10-23T06:41:45.384Z,92.51
2022-10-23T06:44:11.803Z,92.57
2022-10-23T06:46:38.218Z,92.67
2022-10-23T06:49:04.658Z,92.46
2022-10-23T06:51:31.056Z,92.71
2022-10-23T06:53:57.764Z,92.85
2022-10-23T06:56:29.008Z,92.83
2022-10-23T06:58:55.629Z,92.93
2022-10-23T07:01:22.214Z,91.42
2022-10-23T07:03:49.055Z,91.68
2022-10-23T07:06:15.572Z,92.24
2022-10-23T07:08:42.053Z,92.22
2022-10-23T07:11:10.681Z,92.15
2022-10-23T07:13:38.595Z,92.56
2022-10-23T07:16:17.952Z,92.64
2022-10-23T07:18:45.226Z,92.82
2022-10-23T07:21:11.642Z,92.81
2022-10-23T07:23:38.660Z,92.50
2022-10-23T07:26:16.793Z,92.71
2022-10-23T07:28:45.159Z,92.75
2022-10-23T07:31:11.791Z,93.06
2022-10-23T07:33:38.670Z,93.13
2022-10-23T07:36:06.944Z,92.52
2022-10-23T07:38:33.725Z,92.71
2022-10-23T07:41:00.847Z,92.88
2022-10-23T07:43:27.667Z,92.70
2022-10-23T07:45:54.419Z,92.77
2022-10-23T07:48:21.810Z,92.62
2022-10-23T07:50:48.328Z,92.59
2022-10-23T07:53:18.202Z,92.51
2022-10-23T07:55:55.136Z,92.86
2022-10-23T07:58:21.733Z,92.88
2022-10-23T08:00:55.600Z,92.37
2022-10-23T08:03:22.105Z,92.68
2022-10-23T08:05:48.521Z,92.68
2022-10-23T08:08:15.027Z,92.60
2022-10-23T08:10:41.755Z,92.50
2022-10-23T08:13:12.016Z,92.10
2022-10-23T08:15:38.563Z,92.18
2022-10-23T08:18:05.064Z,92.29
2022-10-23T08:20:31.448Z,92.58
2022-10-23T08:22:57.864Z,92.25
2022-10-23T08:25:25.138Z,91.86
2022-10-23T08:27:52.459Z,92.14
2022-10-23T08:30:18.947Z,91.56
2022-10-23T08:32:45.366Z,91.54
2022-10-23T08:35:12.052Z,91.19
2022-10-23T08:37:38.535Z,90.88
2022-10-23T08:40:05.473Z,90.95
2022-10-23T08:42:38.869Z,91.06
2022-10-23T08:45:11.612Z,91.19
2022-10-23T08:47:44.572Z,90.88
2022-10-23T08:50:19.149Z,90.55
2022-10-23T08:52:52.461Z,90.93
2022-10-23T08:55:23.594Z,90.69
2022-10-23T08:58:08.325Z,90.50
2022-10-23T09:00:34.979Z,90.67
2022-10-23T09:03:04.436Z,90.63
2022-10-23T09:05:36.426Z,90.79
2022-10-23T09:08:40.584Z,90.64
2022-10-23T09:11:40.441Z,91.00
2022-10-23T09:14:19.332Z,90.89
2022-10-23T09:19:45.691Z,90.71
2022-10-23T09:22:13.399Z,90.87
2022-10-23T09:24:43.452Z,90.93
2022-10-23T09:27:15.746Z,91.10
2022-10-23T09:29:49.212Z,91.09
2022-10-23T09:32:15.714Z,90.91
2022-10-23T09:34:52.501Z,90.76
2022-10-23T09:37:30.317Z,91.19
2022-10-23T09:40:18.557Z,91.22
2022-10-23T09:42:59.234Z,91.48
2022-10-23T09:45:30.399Z,91.58
2022-10-23T09:48:06.755Z,91.54
2022-10-23T09:50:33.307Z,91.86
2022-10-23T09:53:00.068Z,91.68
2022-10-23T09:55:27.529Z,92.41
2022-10-23T09:57:55.199Z,93.60
2022-10-23T10:00:25.135Z,94.09
2022-10-23T10:03:22.193Z,95.81
2022-10-23T10:06:03.137Z,96.83
2022-10-23T10:08:50.069Z,98.78
2022-10-23T10:11:24.012Z,100.00
2022-10-23T10:13:56.332Z,100.00
2022-10-23T10:16:33.738Z,100.00
2022-10-23T10:19:19.032Z,100.00
2022-10-23T10:21:56.808Z,100.00
2022-10-23T10:24:34.703Z,100.00
2022-10-23T10:27:17.264Z,100.00
2022-10-23T10:30:04.945Z,100.00
2022-10-23T10:32:43.367Z,100.00
2022-10-23T10:35:18.917Z,100.00
2022-10-23T10:38:13.541Z,100.00
2022-10-23T10:41:00.650Z,100.00
2022-10-23T10:44:08.554Z,100.00
2022-10-23T10:46:59.441Z,100.00
2022-10-23T10:49:31.898Z,100.00
2022-10-23T10:52:23.332Z,100.00
2022-10-23T10:55:17.237Z,100.00
2022-10-23T10:58:12.847Z,100.00
2022-10-23T11:00:39.255Z,100.00
2022-10-23T11:03:29.315Z,100.00
2022-10-23T11:08:49.905Z,100.00
2022-10-23T11:11:34.933Z,100.00
2022-10-23T11:14:02.164Z,100.00
2022-10-23T11:16:33.965Z,100.00
2022-10-23T11:19:11.299Z,100.00
2022-10-23T11:21:50.564Z,100.00
2022-10-23T11:24:35.828Z,100.00
2022-10-23T11:27:23.475Z,100.00
2022-10-23T11:30:03.802Z,100.00
2022-10-23T11:32:51.252Z,100.00
2022-10-23T11:35:55.224Z,100.00
2022-10-23T11:38:36.855Z,100.00
2022-10-23T11:41:21.052Z,100.00
2022-10-23T11:44:05.588Z,100.00
2022-10-23T11:46:38.947Z,100.00
2022-10-23T11:49:19.525Z,100.00
2022-10-23T11:51:46.147Z,100.00
2022-10-23T11:54:15.537Z,100.00
2022-10-23T11:56:53.598Z,100.00
2022-10-23T11:59:23.478Z,100.00
2022-10-23T12:01:52.270Z,100.00
2022-10-23T12:04:24.110Z,100.00
2022-10-23T12:07:00.464Z,100.00
2022-10-23T12:10:02.012Z,100.00
2022-10-23T12:12:32.155Z,100.00
2022-10-23T12:15:16.549Z,100.00
2022-10-23T12:17:44.282Z,100.00
2022-10-23T12:20:22.911Z,100.00
2022-10-23T12:23:11.291Z,100.00
2022-10-23T12:25:43.523Z,100.00
2022-10-23T12:28:29.111Z,100.00
2022-10-23T12:31:19.206Z,100.00
2022-10-23T12:34:10.201Z,100.00
2022-10-23T12:37:10.387Z,100.00
2022-10-23T12:39:40.733Z,100.00
2022-10-23T12:42:17.664Z,100.00
2022-10-23T12:44:44.105Z,100.00
2022-10-23T12:47:18.700Z,100.00
2022-10-23T12:49:50.104Z,100.00
2022-10-23T12:52:19.531Z,100.00
2022-10-23T12:54:45.915Z,100.00
2022-10-23T12:57:23.291Z,100.00
2022-10-23T12:59:53.040Z,100.00
2022-10-23T13:02:28.239Z,100.00
2022-10-23T13:04:57.287Z,100.00
2022-10-23T13:07:27.864Z,100.00
2022-10-23T13:09:54.974Z,100.00
2022-10-23T13:12:30.747Z,100.00
2022-10-23T13:15:06.089Z,100.00
2022-10-23T13:17:43.357Z,100.00
2022-10-23T13:20:21.271Z,100.00
2022-10-23T13:23:00.893Z,100.00
2022-10-23T13:25:35.726Z,100.00
2022-10-23T13:28:08.091Z,100.00
2022-10-23T13:30:38.119Z,100.00
2022-10-23T13:33:16.132Z,100.00
2022-10-23T13:35:42.676Z,100.00
2022-10-23T13:38:10.050Z,100.00
2022-10-23T13:40:36.608Z,100.00
2022-10-23T13:43:03.069Z,100.00
2022-10-23T13:45:29.456Z,100.00
2022-10-23T13:47:55.847Z,100.00
2022-10-23T13:50:22.328Z,100.00
2022-10-23T13:52:48.730Z,100.00
2022-10-23T13:55:26.432Z,100.00
2022-10-23T13:57:53.004Z,100.00
2022-10-23T14:00:19.540Z,100.00
2022-10-23T14:02:46.315Z,100.00
2022-10-23T14:05:13.006Z,100.00
2022-10-23T14:07:39.587Z,100.00
2022-10-23T14:10:06.288Z,100.00
2022-10-23T14:12:39.668Z,100.00
2022-10-23T14:15:06.867Z,100.00
2022-10-23T14:17:34.544Z,100.00
2022-10-23T14:20:03.036Z,100.00
2022-10-23T14:22:31.636Z,100.00
2022-10-23T14:24:58.104Z,100.00
2022-10-23T14:27:24.585Z,100.00
2022-10-23T14:29:52.024Z,100.00
2022-10-23T14:32:18.491Z,100.00
2022-10-23T14:34:51.332Z,100.00
2022-10-23T14:37:18.404Z,100.00
2022-10-23T14:39:49.786Z,100.00
2022-10-23T14:42:16.711Z,100.00
2022-10-23T14:44:43.488Z,100.00
2022-10-23T14:47:10.012Z,100.00
2022-10-23T14:49:36.391Z,100.00
2022-10-23T14:52:02.799Z,100.00
2022-10-23T14:54:31.213Z,100.00
2022-10-23T14:56:57.634Z,100.00
2022-10-23T14:59:24.042Z,100.00
2022-10-23T15:01:50.782Z,100.00
2022-10-23T15:04:17.349Z,100.00
2022-10-23T15:06:45.024Z,100.00
2022-10-23T15:09:11.434Z,100.00
2022-10-23T15:11:38.042Z,100.00
2022-10-23T15:14:04.472Z,100.00
2022-10-23T15:16:31.183Z,100.00
2022-10-23T15:19:00.135Z,100.00
2022-10-23T15:21:29.594Z,100.00
2022-10-23T15:23:56.015Z,100.00
2022-10-23T15:26:23.673Z,100.00
2022-10-23T15:28:56.283Z,100.00
2022-10-23T15:31:29.155Z,100.00
2022-10-23T15:33:57.119Z,100.00
2022-10-23T15:36:23.731Z,100.00
2022-10-23T15:38:51.308Z,100.00
2022-10-23T15:41:27.653Z,100.00
2022-10-23T15:43:57.079Z,100.00
2022-10-23T15:46:23.962Z,100.00
2022-10-23T15:48:54.725Z,100.00
2022-10-23T15:51:22.028Z,100.00
2022-10-23T15:53:48.648Z,100.00
2022-10-23T15:56:15.098Z,100.00
2022-10-23T15:58:41.520Z,100.00
2022-10-23T16:01:08.125Z,100.00
2022-10-23T16:03:36.672Z,100.00
2022-10-23T16:06:08.362Z,100.00
2022-10-23T16:08:35.172Z,100.00
2022-10-23T16:11:02.752Z,100.00
2022-10-23T16:13:29.287Z,100.00
2022-10-23T16:15:55.766Z,100.00
2022-10-23T16:18:22.997Z,100.00
2022-10-23T16:20:55.040Z,100.00
2022-10-23T16:23:21.704Z,100.00
2022-10-23T16:25:48.171Z,100.00
2022-10-23T16:28:14.575Z,100.00
2022-10-23T16:30:42.767Z,100.00
2022-10-23T16:33:09.886Z,100.00
2022-10-23T16:35:36.916Z,100.00
2022-10-23T16:38:03.591Z,100.00
2022-10-23T16:40:30.414Z,100.00
2022-10-23T16:42:58.313Z,100.00
2022-10-23T16:45:24.908Z,100.00
2022-10-23T16:47:51.386Z,100.00
2022-10-23T16:50:17.951Z,100.00
2022-10-23T16:52:44.734Z,100.00
2022-10-23T16:55:11.407Z,100.00
2022-10-23T16:57:37.875Z,100.00
2022-10-23T17:00:05.030Z,100.00
2022-10-23T17:02:31.738Z,100.00
2022-10-23T17:04:58.388Z,100.00
2022-10-23T17:07:24.969Z,100.00
2022-10-23T17:09:51.421Z,100.00
2022-10-23T17:12:17.955Z,100.00
2022-10-23T17:14:44.384Z,100.00
2022-10-23T17:17:10.968Z,100.00
2022-10-23T17:19:45.129Z,100.00
2022-10-23T17:22:13.870Z,100.00
2022-10-23T17:24:41.913Z,100.00
2022-10-23T17:27:08.732Z,100.00
2022-10-23T17:29:35.327Z,100.00
2022-10-23T17:32:02.647Z,100.00
2022-10-23T17:34:29.077Z,100.00
2022-10-23T17:36:56.232Z,100.00
2022-10-23T17:39:25.486Z,100.00
2022-10-23T17:41:52.023Z,100.00
2022-10-23T17:44:18.792Z,100.00
2022-10-23T17:46:45.322Z,100.00
2022-10-23T17:49:12.663Z,100.00
2022-10-23T17:51:39.637Z,100.00
2022-10-23T17:54:08.735Z,100.00
2022-10-23T17:56:37.618Z,100.00
2022-10-23T17:59:15.257Z,100.00
2022-10-23T18:01:47.746Z,100.00
2022-10-23T18:04:15.362Z,100.00
2022-10-23T18:06:44.747Z,100.00
2022-10-23T18:09:12.001Z,100.00
2022-10-23T18:11:45.231Z,100.00
2022-10-23T18:14:15.832Z,100.00
2022-10-23T18:16:42.501Z,100.00
2022-10-23T18:19:09.304Z,100.00
2022-10-23T18:21:36.380Z,100.00
2022-10-23T18:24:03.916Z,100.00
2022-10-23T18:26:34.769Z,100.00
2022-10-23T18:29:03.929Z,100.00
2022-10-23T18:31:30.504Z,100.00
2022-10-23T18:33:59.599Z,100.00
2022-10-23T18:36:29.236Z,100.00
2022-10-23T18:41:28.035Z,100.00
2022-10-23T18:43:54.889Z,100.00
2022-10-23T18:46:21.866Z,100.00
2022-10-23T18:48:50.643Z,100.00
2022-10-23T18:51:23.058Z,100.00
2022-10-23T18:53:49.638Z,100.00
2022-10-23T18:56:27.856Z,100.00
2022-10-23T18:58:55.559Z,100.00
2022-10-23T19:01:23.503Z,100.00
2022-10-23T19:03:50.425Z,100.00
2022-10-23T19:06:17.537Z,100.00
2022-10-23T19:08:45.275Z,100.00
2022-10-23T19:11:13.273Z,100.00
2022-10-23T19:13:40.705Z,100.00
2022-10-23T19:16:19.621Z,100.00
2022-10-23T19:18:50.406Z,100.00
2022-10-23T19:21:19.839Z,100.00
2022-10-23T19:23:47.004Z,100.00
2022-10-23T19:26:14.007Z,100.00
2022-10-23T19:28:44.226Z,100.00
2022-10-23T19:31:11.430Z,100.00
2022-10-23T19:33:38.921Z,100.00
2022-10-23T19:36:09.870Z,100.00
2022-10-23T19:38:40.764Z,100.00
2022-10-23T19:41:07.743Z,100.00
2022-10-23T19:43:34.354Z,100.00
2022-10-23T19:46:05.024Z,100.00
2022-10-23T19:48:34.366Z,100.00
2022-10-23T19:51:00.856Z,100.00
2022-10-23T19:53:27.578Z,100.00
2022-10-23T19:56:06.271Z,100.00
2022-10-23T19:58:32.934Z,100.00
2022-10-23T20:01:06.078Z,100.00
2022-10-23T20:03:32.636Z,100.00
2022-10-23T20:05:59.366Z,100.00
2022-10-23T20:08:25.853Z,100.00
2022-10-23T20:10:52.420Z,100.00
2022-10-23T20:13:20.525Z,100.00
2022-10-23T20:15:47.372Z,100.00
2022-10-23T20:18:13.952Z,100.00
2022-10-23T20:20:43.376Z,100.00
2022-10-23T20:23:09.934Z,100.00
2022-10-23T20:25:36.573Z,100.00
2022-10-23T20:28:03.602Z,100.00
2022-10-23T20:30:30.205Z,100.00
2022-10-23T20:32:56.752Z,100.00
2022-10-23T20:35:24.172Z,100.00
2022-10-23T20:37:50.772Z,100.00
2022-10-23T20:40:17.418Z,100.00
2022-10-23T20:42:43.975Z,100.00
2022-10-23T20:45:10.785Z,100.00
2022-10-23T20:47:37.367Z,100.00
2022-10-23T20:50:04.167Z,100.00
2022-10-23T20:54:59.648Z,100.00
2022-10-23T20:57:26.279Z,100.00
2022-10-23T20:59:53.107Z,100.00
2022-10-23T21:02:19.609Z,100.00
2022-10-23T21:04:47.611Z,100.00
2022-10-23T21:07:14.007Z,100.00
2022-10-23T21:09:40.553Z,100.00
2022-10-23T21:12:07.893Z,100.00
2022-10-23T21:14:34.839Z,100.00
2022-10-23T21:17:01.312Z,100.00
2022-10-23T21:19:27.831Z,100.00
2022-10-23T21:21:54.807Z,100.00
2022-10-23T21:24:21.644Z,100.00
2022-10-23T21:26:48.125Z,100.00
2022-10-23T21:29:19.433Z,100.00
2022-10-23T21:31:55.048Z,100.00
2022-10-23T21:34:22.829Z,100.00
2022-10-23T21:37:11.295Z,100.00
2022-10-23T21:39:35.752Z,100.00
2022-10-23T21:42:02.223Z,100.00
2022-10-23T21:44:28.656Z,100.00
2022-10-23T21:46:55.306Z,100.00
2022-10-23T21:49:21.776Z,100.00
2022-10-23T21:51:48.174Z,100.00
2022-10-23T21:54:17.494Z,100.00
2022-10-23T21:56:49.638Z,100.00
2022-10-23T21:59:18.910Z,100.00
2022-10-23T22:01:47.106Z,100.00
2022-10-23T22:04:14.349Z,100.00
2022-10-23T22:06:42.219Z,100.00
2022-10-23T22:09:09.591Z,100.00
2022-10-23T22:11:36.033Z,100.00
2022-10-23T22:14:02.485Z,100.00
2022-10-23T22:16:28.874Z,100.00
2022-10-23T22:18:55.450Z,100.00
2022-10-23T22:21:25.464Z,100.00
2022-10-23T22:23:54.534Z,100.00
2022-10-23T22:26:28.132Z,100.00
2022-10-23T22:28:57.687Z,100.00
2022-10-23T22:31:26.611Z,100.00
2022-10-23T22:33:53.998Z,100.00
2022-10-23T22:36:20.854Z,100.00
2022-10-23T22:38:47.690Z,100.00
2022-10-23T22:41:14.503Z,100.00
2022-10-23T22:43:41.064Z,100.00
2022-10-23T22:46:10.252Z,100.00
2022-10-23T22:48:37.777Z,100.00
2022-10-23T22:51:07.334Z,100.00
2022-10-23T22:53:35.379Z,100.00
2022-10-23T22:56:05.705Z,100.00
2022-10-23T22:58:32.125Z,100.00
2022-10-23T23:01:06.222Z,100.00
2022-10-23T23:03:32.777Z,100.00
2022-10-23T23:05:59.256Z,100.00
2022-10-23T23:08:26.258Z,100.00
2022-10-23T23:10:53.844Z,100.00
2022-10-23T23:13:20.290Z,100.00
2022-10-23T23:15:46.719Z,100.00
2022-10-23T23:18:13.355Z,100.00
2022-10-23T23:20:39.869Z,100.00
2022-10-23T23:23:06.426Z,100.00
2022-10-23T23:25:32.827Z,100.00
2022-10-23T23:27:59.274Z,100.00
2022-10-23T23:30:26.384Z,100.00
2022-10-23T23:32:53.239Z,100.00
2022-10-23T23:35:20.553Z,100.00
2022-10-23T23:37:47.112Z,100.00
2022-10-23T23:40:13.871Z,100.00
2022-10-23T23:42:40.330Z,100.00
2022-10-23T23:45:14.742Z,100.00
2022-10-23T23:47:41.990Z,100.00
2022-10-23T23:50:10.959Z,100.00
2022-10-23T23:52:37.691Z,100.00
2022-10-23T23:55:04.639Z,100.00
2022-10-23T23:57:31.166Z,100.00
2022-10-23T23:59:57.590Z,100.00
